Ann Arbor, MI

5:45 AM EST on February 11, 2016 (GMT -0500)
Leslie Park Golf Course | | Change Station
CLOSE
Current Station
Personal Weather Station
Location: Ann Arbor, MI
Elevation: 906 ft
Nearby Weather Stations

Elev 906 ft 42.31 °N, 83.72 °W | Updated 1 minute ago

Mostly Cloudy
Mostly Cloudy
12.8 °F
Feels Like 6 °F
N
4.0
Wind Variable Wind from NW
Gusts 4.0 mph

Today
High -- | Low -- °F
--% Chance of Precip.
Yesterday
High -- | Low -- °F
Precip. -- in
Pressure 30.12 in
Visibility 10.0 miles
Clouds Overcast 5500 ft
Windchill 6 °F
Dew Point 8 °F
Humidity 82%
Rainfall 0.00 in
Snow Depth Not available.
7:37 AM 6:01 PM
Waxing Crescent, 11% visible
METAR KARB 110953Z AUTO 27003KT 10SM OVC055 M14/M16 A3007 RMK AO2 SLP200 T11391161 TSNO
Pressure 30.12 in
Visibility 10.0 miles
Clouds Overcast 5500 ft
Windchill 6 °F
Dew Point 8 °F
Humidity 82%
Rainfall 0.00 in
Snow Depth Not available.
7:37 AM 6:01 PM
Waxing Crescent, 11% visible
METAR KARB 110953Z AUTO 27003KT 10SM OVC055 M14/M16 A3007 RMK AO2 SLP200 T11391161 TSNO

10-Day Weather Forecast

Almanac

Astronomy

Feb. 11, 2016 Rise Set
Actual Time
Civil Twilight
Nautical Twilight
Astronomical Twilight
Moon
Length of Visible Light
Length of Day
Tomorrow will be .
, % of the Moon is Illuminated

Today's Extremes

State Highs State Lows

Community

WunderPhotos

Upload Photos

1,892,030 photos uploaded!

WunderBlog® & News

Nearby

Air Quality

  Air Quality AQ Index Pollutant
Not available.

Snow Depth

Station Depth Elevation

Earthquake Activity

City Distance Mag. Time & Date
Minimum magnitude displayed is 2.5.

Coastal Water Temperatures

Place Temperature

Stations

Nearby Weather Stations

Station Location Temp. Windchill Dew Point Humidity Wind Precip. Elev Updated Type
                   

Watches & Warnings

There are currently no watches in effect.